<?xml version="1.0" encoding="UTF-8" standalone="no" ?><gpx xmlns="http://www.topografix.com/GPX/1/1" xmlns:gpxx="http://www.garmin.com/xmlschemas/GpxExtensions/v3" xmlns:wptx1="http://www.garmin.com/xmlschemas/WaypointExtension/v1" xmlns:gpxtpx="http://www.garmin.com/xmlschemas/TrackPointExtension/v1" creator="GuideVTT.com" version="1.1" xmlns:xsi="http://www.w3.org/2001/XMLSchema-instance" xsi:schemaLocation="http://www.topografix.com/GPX/1/1 http://www.topografix.com/GPX/1/1/gpx.xsd http://www.garmin.com/xmlschemas/GpxExtensions/v3 http://www8.garmin.com/xmlschemas/GpxExtensionsv3.xsd http://www.garmin.com/xmlschemas/WaypointExtension/v1 http://www8.garmin.com/xmlschemas/WaypointExtensionv1.xsd http://www.garmin.com/xmlschemas/TrackPointExtension/v1 http://www.garmin.com/xmlschemas/TrackPointExtensionv1.xsd">
<metadata><link href="http://www.garmin.com"><text>Garmin International</text></link><time>2013-06-22T15:13:50Z</time></metadata>
<trk><name>1_montana.gpx</name><extensions><gpxx:TrackExtension><gpxx:DisplayColor>Cyan</gpxx:DisplayColor></gpxx:TrackExtension></extensions><trkseg>
<trkpt lat="46.30825667" lon="7.46564389"><ele></ele><time>2014-7-4T1:58:9Z</time></trkpt>
<trkpt lat="46.30825667" lon="7.46564389"><ele></ele><time>2014-7-4T1:58:12Z</time></trkpt>
<trkpt lat="46.30825667" lon="7.46564389"><ele></ele><time>2014-7-4T1:58:15Z</time></trkpt>
<trkpt lat="46.30825667" lon="7.46564389"><ele></ele><time>2014-7-4T1:58:18Z</time></trkpt>
<trkpt lat="46.30825667" lon="7.46564389"><ele></ele><time>2014-7-4T1:58:21Z</time></trkpt>
<trkpt lat="46.26966957" lon="7.30048897"><ele></ele><time>2014-7-4T1:58:24Z</time></trkpt>
<trkpt lat="46.26967066" lon="7.30049165"><ele></ele><time>2014-7-4T1:58:27Z</time></trkpt>
<trkpt lat="46.26967108" lon="7.30049173"><ele></ele><time>2014-7-4T1:58:30Z</time></trkpt>
<trkpt lat="46.26967133" lon="7.30049198"><ele></ele><time>2014-7-4T1:58:33Z</time></trkpt>
<trkpt lat="46.26967150" lon="7.30049215"><ele></ele><time>2014-7-4T1:58:36Z</time></trkpt>
<trkpt lat="46.26967175" lon="7.30049232"><ele></ele><time>2014-7-4T1:58:39Z</time></trkpt>
<trkpt lat="46.26967175" lon="7.30049257"><ele></ele><time>2014-7-4T1:58:42Z</time></trkpt>
<trkpt lat="46.26967208" lon="7.30049266"><ele></ele><time>2014-7-4T1:58:45Z</time></trkpt>
<trkpt lat="46.26967108" lon="7.30049224"><ele></ele><time>2014-7-4T1:58:48Z</time></trkpt>
<trkpt lat="46.26967192" lon="7.30049299"><ele></ele><time>2014-7-4T1:58:51Z</time></trkpt>
<trkpt lat="46.26967368" lon="7.30049450"><ele></ele><time>2014-7-4T1:58:54Z</time></trkpt>
<trkpt lat="46.26967368" lon="7.30049802"><ele></ele><time>2014-7-4T1:58:57Z</time></trkpt>
<trkpt lat="46.26967410" lon="7.30051990"><ele></ele><time>2014-7-4T1:59:0Z</time></trkpt>
<trkpt lat="46.26967435" lon="7.30055460"><ele></ele><time>2014-7-4T1:59:3Z</time></trkpt>
<trkpt lat="46.26969807" lon="7.30055745"><ele></ele><time>2014-7-4T1:59:6Z</time></trkpt>
<trkpt lat="46.26976613" lon="7.30053783"><ele></ele><time>2014-7-4T1:59:9Z</time></trkpt>
<trkpt lat="46.26978063" lon="7.30051856"><ele></ele><time>2014-7-4T1:59:12Z</time></trkpt>
<trkpt lat="46.26990837" lon="7.30039199"><ele></ele><time>2014-7-4T1:59:15Z</time></trkpt>
<trkpt lat="46.26999965" lon="7.30028244"><ele></ele><time>2014-7-4T1:59:18Z</time></trkpt>
<trkpt lat="46.27011054" lon="7.30015587"><ele></ele><time>2014-7-4T1:59:21Z</time></trkpt>
<trkpt lat="46.27026058" lon="7.30006283"><ele></ele><time>2014-7-4T1:59:24Z</time></trkpt>
<trkpt lat="46.27034985" lon="7.29999133"><ele></ele><time>2014-7-4T1:59:27Z</time></trkpt>
<trkpt lat="46.27044339" lon="7.29989880"><ele></ele><time>2014-7-4T1:59:30Z</time></trkpt>
<trkpt lat="46.27050382" lon="7.29984784"><ele></ele><time>2014-7-4T1:59:33Z</time></trkpt>
<trkpt lat="46.27057674" lon="7.29981154"><ele></ele><time>2014-7-4T1:59:36Z</time></trkpt>
<trkpt lat="46.27063885" lon="7.29975555"><ele></ele><time>2014-7-4T1:59:39Z</time></trkpt>
<trkpt lat="46.27069468" lon="7.29965958"><ele></ele><time>2014-7-4T1:59:42Z</time></trkpt>
<trkpt lat="46.27077254" lon="7.29958096"><ele></ele><time>2014-7-4T1:59:45Z</time></trkpt>
<trkpt lat="46.27080205" lon="7.29952765"><ele></ele><time>2014-7-4T1:59:48Z</time></trkpt>
<trkpt lat="46.27087916" lon="7.29943503"><ele></ele><time>2014-7-4T1:59:51Z</time></trkpt>
<trkpt lat="46.27094362" lon="7.29931424"><ele></ele><time>2014-7-4T1:59:54Z</time></trkpt>
<trkpt lat="46.27096089" lon="7.29927267"><ele></ele><time>2014-7-4T1:59:57Z</time></trkpt>
<trkpt lat="46.27100036" lon="7.29921735"><ele></ele><time>2014-7-4T2:0:0Z</time></trkpt>
<trkpt lat="46.27102559" lon="7.29911040"><ele></ele><time>2014-7-4T2:0:3Z</time></trkpt>
<trkpt lat="46.27102937" lon="7.29906740"><ele></ele><time>2014-7-4T2:0:6Z</time></trkpt>
<trkpt lat="46.27104135" lon="7.29896178"><ele></ele><time>2014-7-4T2:0:9Z</time></trkpt>
<trkpt lat="46.27109374" lon="7.29885944"><ele></ele><time>2014-7-4T2:0:12Z</time></trkpt>
<trkpt lat="46.27116390" lon="7.29877084"><ele></ele><time>2014-7-4T2:0:15Z</time></trkpt>
<trkpt lat="46.27116968" lon="7.29876028"><ele></ele><time>2014-7-4T2:0:18Z</time></trkpt>
<trkpt lat="46.27121452" lon="7.29862190"><ele></ele><time>2014-7-4T2:0:21Z</time></trkpt>
<trkpt lat="46.27123992" lon="7.29853615"><ele></ele><time>2014-7-4T2:0:24Z</time></trkpt>
<trkpt lat="46.27124093" lon="7.29845242"><ele></ele><time>2014-7-4T2:0:27Z</time></trkpt>
<trkpt lat="46.27128719" lon="7.29837589"><ele></ele><time>2014-7-4T2:0:30Z</time></trkpt>
<trkpt lat="46.27134092" lon="7.29826206"><ele></ele><time>2014-7-4T2:0:33Z</time></trkpt>
<trkpt lat="46.27134344" lon="7.29825418"><ele></ele><time>2014-7-4T2:0:36Z</time></trkpt>
<trkpt lat="46.27136213" lon="7.29817037"><ele></ele><time>2014-7-4T2:0:39Z</time></trkpt>
<trkpt lat="46.27136364" lon="7.29816165"><ele></ele><time>2014-7-4T2:0:42Z</time></trkpt>
<trkpt lat="46.27139968" lon="7.29805495"><ele></ele><time>2014-7-4T2:0:45Z</time></trkpt>
<trkpt lat="46.27144435" lon="7.29795403"><ele></ele><time>2014-7-4T2:0:48Z</time></trkpt>
<trkpt lat="46.27149506" lon="7.29785110"><ele></ele><time>2014-7-4T2:0:51Z</time></trkpt>
<trkpt lat="46.27153932" lon="7.29777684"><ele></ele><time>2014-7-4T2:0:54Z</time></trkpt>
<trkpt lat="46.27162876" lon="7.29766418"><ele></ele><time>2014-7-4T2:0:57Z</time></trkpt>
<trkpt lat="46.27163253" lon="7.29765714"><ele></ele><time>2014-7-4T2:1:0Z</time></trkpt>
<trkpt lat="46.27170696" lon="7.29759595"><ele></ele><time>2014-7-4T2:1:3Z</time></trkpt>
<trkpt lat="46.27177728" lon="7.29757190"><ele></ele><time>2014-7-4T2:1:6Z</time></trkpt>
<trkpt lat="46.27183252" lon="7.29748799"><ele></ele><time>2014-7-4T2:1:9Z</time></trkpt>
<trkpt lat="46.27192615" lon="7.29737509"><ele></ele><time>2014-7-4T2:1:12Z</time></trkpt>
<trkpt lat="46.27199806" lon="7.29729563"><ele></ele><time>2014-7-4T2:1:15Z</time></trkpt>
<trkpt lat="46.27210409" lon="7.29723545"><ele></ele><time>2014-7-4T2:1:18Z</time></trkpt>
<trkpt lat="46.27219923" lon="7.29716437"><ele></ele><time>2014-7-4T2:1:21Z</time></trkpt>
<trkpt lat="46.27224047" lon="7.29715825"><ele></ele><time>2014-7-4T2:1:24Z</time></trkpt>
<trkpt lat="46.27220887" lon="7.29717828"><ele></ele><time>2014-7-4T2:1:27Z</time></trkpt>
<trkpt lat="46.27224784" lon="7.29717795"><ele></ele><time>2014-7-4T2:1:30Z</time></trkpt>
<trkpt lat="46.27243367" lon="7.29716387"><ele></ele><time>2014-7-4T2:1:33Z</time></trkpt>
<trkpt lat="46.27261229" lon="7.29716085"><ele></ele><time>2014-7-4T2:1:36Z</time></trkpt>
<trkpt lat="46.27274305" lon="7.29717853"><ele></ele><time>2014-7-4T2:1:39Z</time></trkpt>
<trkpt lat="46.27287079" lon="7.29714953"><ele></ele><time>2014-7-4T2:1:42Z</time></trkpt>
<trkpt lat="46.27299928" lon="7.29713143"><ele></ele><time>2014-7-4T2:1:45Z</time></trkpt>
<trkpt lat="46.27301060" lon="7.29712975"><ele></ele><time>2014-7-4T2:1:48Z</time></trkpt>
<trkpt lat="46.27318184" lon="7.29703747"><ele></ele><time>2014-7-4T2:1:51Z</time></trkpt>
<trkpt lat="46.27330874" lon="7.29693479"><ele></ele><time>2014-7-4T2:1:54Z</time></trkpt>
<trkpt lat="46.27348032" lon="7.29688919"><ele></ele><time>2014-7-4T2:1:57Z</time></trkpt>
<trkpt lat="46.27364762" lon="7.29696102"><ele></ele><time>2014-7-4T2:2:0Z</time></trkpt>
<trkpt lat="46.27369707" lon="7.29700746"><ele></ele><time>2014-7-4T2:2:3Z</time></trkpt>
<trkpt lat="46.27374644" lon="7.29708918"><ele></ele><time>2014-7-4T2:2:6Z</time></trkpt>
<trkpt lat="46.27379514" lon="7.29718549"><ele></ele><time>2014-7-4T2:2:9Z</time></trkpt>
<trkpt lat="46.27383303" lon="7.29725556"><ele></ele><time>2014-7-4T2:2:12Z</time></trkpt>
<trkpt lat="46.27402104" lon="7.29738934"><ele></ele><time>2014-7-4T2:2:15Z</time></trkpt>
<trkpt lat="46.27408189" lon="7.29744776"><ele></ele><time>2014-7-4T2:2:18Z</time></trkpt>
<trkpt lat="46.27418146" lon="7.29758958"><ele></ele><time>2014-7-4T2:2:21Z</time></trkpt>
<trkpt lat="46.27439135" lon="7.29769209"><ele></ele><time>2014-7-4T2:2:24Z</time></trkpt>
<trkpt lat="46.27457659" lon="7.29767499"><ele></ele><time>2014-7-4T2:2:27Z</time></trkpt>
<trkpt lat="46.27476820" lon="7.29758615"><ele></ele><time>2014-7-4T2:2:30Z</time></trkpt>
<trkpt lat="46.27492670" lon="7.29752705"><ele></ele><time>2014-7-4T2:2:33Z</time></trkpt>
<trkpt lat="46.27501169" lon="7.29751767"><ele></ele><time>2014-7-4T2:2:36Z</time></trkpt>
<trkpt lat="46.27513516" lon="7.29760995"><ele></ele><time>2014-7-4T2:2:39Z</time></trkpt>
<trkpt lat="46.27524429" lon="7.29777616"><ele></ele><time>2014-7-4T2:2:42Z</time></trkpt>
<trkpt lat="46.27532576" lon="7.29792226"><ele></ele><time>2014-7-4T2:2:45Z</time></trkpt>
<trkpt lat="46.27536474" lon="7.29809862"><ele></ele><time>2014-7-4T2:2:48Z</time></trkpt>
<trkpt lat="46.27550924" lon="7.29826047"><ele></ele><time>2014-7-4T2:2:51Z</time></trkpt>
<trkpt lat="46.27569180" lon="7.29836952"><ele></ele><time>2014-7-4T2:2:54Z</time></trkpt>
<trkpt lat="46.27583756" lon="7.29845376"><ele></ele><time>2014-7-4T2:2:57Z</time></trkpt>
<trkpt lat="46.27586304" lon="7.29847538"><ele></ele><time>2014-7-4T2:3:0Z</time></trkpt>
<trkpt lat="46.27602657" lon="7.29856314"><ele></ele><time>2014-7-4T2:3:3Z</time></trkpt>
<trkpt lat="46.27619019" lon="7.29866674"><ele></ele><time>2014-7-4T2:3:6Z</time></trkpt>
<trkpt lat="46.27634324" lon="7.29876699"><ele></ele><time>2014-7-4T2:3:9Z</time></trkpt>
<trkpt lat="46.27650082" lon="7.29883639"><ele></ele><time>2014-7-4T2:3:12Z</time></trkpt>
<trkpt lat="46.27665019" lon="7.29887478"><ele></ele><time>2014-7-4T2:3:15Z</time></trkpt>
<trkpt lat="46.27682336" lon="7.29893614"><ele></ele><time>2014-7-4T2:3:18Z</time></trkpt>
<trkpt lat="46.27688505" lon="7.29894225"><ele></ele><time>2014-7-4T2:3:21Z</time></trkpt>
<trkpt lat="46.27704539" lon="7.29899590"><ele></ele><time>2014-7-4T2:3:24Z</time></trkpt>
<trkpt lat="46.27708177" lon="7.29900462"><ele></ele><time>2014-7-4T2:3:27Z</time></trkpt>
<trkpt lat="46.27726014" lon="7.29906832"><ele></ele><time>2014-7-4T2:3:30Z</time></trkpt>
<trkpt lat="46.27734446" lon="7.29915314"><ele></ele><time>2014-7-4T2:3:33Z</time></trkpt>
<trkpt lat="46.27744529" lon="7.29928767"><ele></ele><time>2014-7-4T2:3:36Z</time></trkpt>
<trkpt lat="46.27759734" lon="7.29942966"><ele></ele><time>2014-7-4T2:3:39Z</time></trkpt>
<trkpt lat="46.27767496" lon="7.29948088"><ele></ele><time>2014-7-4T2:3:42Z</time></trkpt>
<trkpt lat="46.27788937" lon="7.29960417"><ele></ele><time>2014-7-4T2:3:45Z</time></trkpt>
<trkpt lat="46.27804016" lon="7.29975689"><ele></ele><time>2014-7-4T2:3:48Z</time></trkpt>
<trkpt lat="46.27815658" lon="7.29994012"><ele></ele><time>2014-7-4T2:3:51Z</time></trkpt>
<trkpt lat="46.27832196" lon="7.30011262"><ele></ele><time>2014-7-4T2:3:54Z</time></trkpt>
<trkpt lat="46.27846923" lon="7.30025796"><ele></ele><time>2014-7-4T2:3:57Z</time></trkpt>
<trkpt lat="46.27846730" lon="7.30051646"><ele></ele><time>2014-7-4T2:4:0Z</time></trkpt>
<trkpt lat="46.27846009" lon="7.30056189"><ele></ele><time>2014-7-4T2:4:3Z</time></trkpt>
<trkpt lat="46.27838516" lon="7.30080295"><ele></ele><time>2014-7-4T2:4:6Z</time></trkpt>
<trkpt lat="46.27837577" lon="7.30109062"><ele></ele><time>2014-7-4T2:4:9Z</time></trkpt>
<trkpt lat="46.27837468" lon="7.30110546"><ele></ele><time>2014-7-4T2:4:12Z</time></trkpt>
<trkpt lat="46.27834082" lon="7.30137737"><ele></ele><time>2014-7-4T2:4:15Z</time></trkpt>
<trkpt lat="46.27830318" lon="7.30159094"><ele></ele><time>2014-7-4T2:4:18Z</time></trkpt>
<trkpt lat="46.27829597" lon="7.30173326"><ele></ele><time>2014-7-4T2:4:21Z</time></trkpt>
<trkpt lat="46.27828072" lon="7.30200425"><ele></ele><time>2014-7-4T2:4:24Z</time></trkpt>
<trkpt lat="46.27821123" lon="7.30227867"><ele></ele><time>2014-7-4T2:4:27Z</time></trkpt>
<trkpt lat="46.27816999" lon="7.30240205"><ele></ele><time>2014-7-4T2:4:30Z</time></trkpt>
<trkpt lat="46.27811434" lon="7.30253633"><ele></ele><time>2014-7-4T2:4:33Z</time></trkpt>
<trkpt lat="46.27807737" lon="7.30259048"><ele></ele><time>2014-7-4T2:4:36Z</time></trkpt>
<trkpt lat="46.27797855" lon="7.30275619"><ele></ele><time>2014-7-4T2:4:39Z</time></trkpt>
<trkpt lat="46.27791200" lon="7.30288954"><ele></ele><time>2014-7-4T2:4:42Z</time></trkpt>
<trkpt lat="46.27786363" lon="7.30312767"><ele></ele><time>2014-7-4T2:4:45Z</time></trkpt>
<trkpt lat="46.27786095" lon="7.30315416"><ele></ele><time>2014-7-4T2:4:48Z</time></trkpt>
<trkpt lat="46.27786456" lon="7.30323915"><ele></ele><time>2014-7-4T2:4:51Z</time></trkpt>
<trkpt lat="46.27785584" lon="7.30332037"><ele></ele><time>2014-7-4T2:4:54Z</time></trkpt>
<trkpt lat="46.27789565" lon="7.30337343"><ele></ele><time>2014-7-4T2:4:57Z</time></trkpt>
<trkpt lat="46.27797578" lon="7.30342205"><ele></ele><time>2014-7-4T2:5:0Z</time></trkpt>
<trkpt lat="46.27804929" lon="7.30349723"><ele></ele><time>2014-7-4T2:5:3Z</time></trkpt>
<trkpt lat="46.27819363" lon="7.30357074"><ele></ele><time>2014-7-4T2:5:6Z</time></trkpt>
<trkpt lat="46.27829103" lon="7.30357485"><ele></ele><time>2014-7-4T2:5:9Z</time></trkpt>
<trkpt lat="46.27831114" lon="7.30353252"><ele></ele><time>2014-7-4T2:5:12Z</time></trkpt>
<trkpt lat="46.27838667" lon="7.30354484"><ele></ele><time>2014-7-4T2:5:15Z</time></trkpt>
<trkpt lat="46.27846965" lon="7.30355155"><ele></ele><time>2014-7-4T2:5:18Z</time></trkpt>
<trkpt lat="46.27858942" lon="7.30352959"><ele></ele><time>2014-7-4T2:5:21Z</time></trkpt>
<trkpt lat="46.27873904" lon="7.30340947"><ele></ele><time>2014-7-4T2:5:24Z</time></trkpt>
<trkpt lat="46.27885102" lon="7.30329087"><ele></ele><time>2014-7-4T2:5:27Z</time></trkpt>
<trkpt lat="46.27888120" lon="7.30327612"><ele></ele><time>2014-7-4T2:5:30Z</time></trkpt>
<trkpt lat="46.27893057" lon="7.30328576"><ele></ele><time>2014-7-4T2:5:33Z</time></trkpt>
<trkpt lat="46.27893534" lon="7.30329749"><ele></ele><time>2014-7-4T2:5:36Z</time></trkpt>
<trkpt lat="46.27906526" lon="7.30342967"><ele></ele><time>2014-7-4T2:5:39Z</time></trkpt>
<trkpt lat="46.27917624" lon="7.30359295"><ele></ele><time>2014-7-4T2:5:42Z</time></trkpt>
<trkpt lat="46.27924883" lon="7.30371273"><ele></ele><time>2014-7-4T2:5:45Z</time></trkpt>
<trkpt lat="46.27930105" lon="7.30382555"><ele></ele><time>2014-7-4T2:5:48Z</time></trkpt>
<trkpt lat="46.27932594" lon="7.30389588"><ele></ele><time>2014-7-4T2:5:51Z</time></trkpt>
<trkpt lat="46.27936567" lon="7.30392840"><ele></ele><time>2014-7-4T2:5:54Z</time></trkpt>
<trkpt lat="46.27938705" lon="7.30393569"><ele></ele><time>2014-7-4T2:5:57Z</time></trkpt>
<trkpt lat="46.27955225" lon="7.30390585"><ele></ele><time>2014-7-4T2:6:0Z</time></trkpt>
<trkpt lat="46.27961126" lon="7.30392999"><ele></ele><time>2014-7-4T2:6:3Z</time></trkpt>
<trkpt lat="46.27964898" lon="7.30390719"><ele></ele><time>2014-7-4T2:6:6Z</time></trkpt>
<trkpt lat="46.27968368" lon="7.30392504"><ele></ele><time>2014-7-4T2:6:9Z</time></trkpt>
<trkpt lat="46.27967714" lon="7.30394172"><ele></ele><time>2014-7-4T2:6:12Z</time></trkpt>
<trkpt lat="46.27960162" lon="7.30394768"><ele></ele><time>2014-7-4T2:6:15Z</time></trkpt>
<trkpt lat="46.27964035" lon="7.30396369"><ele></ele><time>2014-7-4T2:6:18Z</time></trkpt>
<trkpt lat="46.27966826" lon="7.30398456"><ele></ele><time>2014-7-4T2:6:21Z</time></trkpt>
<trkpt lat="46.27973146" lon="7.30410165"><ele></ele><time>2014-7-4T2:6:24Z</time></trkpt>
<trkpt lat="46.27980522" lon="7.30432059"><ele></ele><time>2014-7-4T2:6:27Z</time></trkpt>
<trkpt lat="46.27981704" lon="7.30440399"><ele></ele><time>2014-7-4T2:6:30Z</time></trkpt>
<trkpt lat="46.27981746" lon="7.30444003"><ele></ele><time>2014-7-4T2:6:33Z</time></trkpt>
<trkpt lat="46.27984956" lon="7.30481386"><ele></ele><time>2014-7-4T2:6:36Z</time></trkpt>
<trkpt lat="46.27987487" lon="7.30513497"><ele></ele><time>2014-7-4T2:6:39Z</time></trkpt>
<trkpt lat="46.27989960" lon="7.30547486"><ele></ele><time>2014-7-4T2:6:42Z</time></trkpt>
<trkpt lat="46.27991536" lon="7.30585615"><ele></ele><time>2014-7-4T2:6:45Z</time></trkpt>
<trkpt lat="46.27994662" lon="7.30608992"><ele></ele><time>2014-7-4T2:6:48Z</time></trkpt>
<trkpt lat="46.27997118" lon="7.30615673"><ele></ele><time>2014-7-4T2:6:51Z</time></trkpt>
<trkpt lat="46.27999247" lon="7.30616452"><ele></ele><time>2014-7-4T2:6:54Z</time></trkpt>
<trkpt lat="46.28008149" lon="7.30617408"><ele></ele><time>2014-7-4T2:6:57Z</time></trkpt>
<trkpt lat="46.28016665" lon="7.30614013"><ele></ele><time>2014-7-4T2:7:0Z</time></trkpt>
<trkpt lat="46.28031350" lon="7.30613166"><ele></ele><time>2014-7-4T2:7:3Z</time></trkpt>
<trkpt lat="46.28033169" lon="7.30613586"><ele></ele><time>2014-7-4T2:7:6Z</time></trkpt>
<trkpt lat="46.28042255" lon="7.30621180"><ele></ele><time>2014-7-4T2:7:9Z</time></trkpt>
<trkpt lat="46.28049438" lon="7.30628069"><ele></ele><time>2014-7-4T2:7:12Z</time></trkpt>
<trkpt lat="46.28052103" lon="7.30647574"><ele></ele><time>2014-7-4T2:7:15Z</time></trkpt>
<trkpt lat="46.28051877" lon="7.30665377"><ele></ele><time>2014-7-4T2:7:18Z</time></trkpt>
<trkpt lat="46.28055389" lon="7.30688453"><ele></ele><time>2014-7-4T2:7:21Z</time></trkpt>
<trkpt lat="46.28055657" lon="7.30706365"><ele></ele><time>2014-7-4T2:7:24Z</time></trkpt>
<trkpt lat="46.28054886" lon="7.30711034"><ele></ele><time>2014-7-4T2:7:27Z</time></trkpt>
<trkpt lat="46.28057728" lon="7.30735165"><ele></ele><time>2014-7-4T2:7:30Z</time></trkpt>
<trkpt lat="46.28059077" lon="7.30765147"><ele></ele><time>2014-7-4T2:7:33Z</time></trkpt>
<trkpt lat="46.28059379" lon="7.30773604"><ele></ele><time>2014-7-4T2:7:36Z</time></trkpt>
<trkpt lat="46.28061139" lon="7.30778164"><ele></ele><time>2014-7-4T2:7:39Z</time></trkpt>
<trkpt lat="46.28069848" lon="7.30781525"><ele></ele><time>2014-7-4T2:7:42Z</time></trkpt>
<trkpt lat="46.28073494" lon="7.30784560"><ele></ele><time>2014-7-4T2:7:45Z</time></trkpt>
<trkpt lat="46.28079495" lon="7.30778592"><ele></ele><time>2014-7-4T2:7:48Z</time></trkpt>
<trkpt lat="46.28084810" lon="7.30773060"><ele></ele><time>2014-7-4T2:7:51Z</time></trkpt>
<trkpt lat="46.28096812" lon="7.30769346"><ele></ele><time>2014-7-4T2:7:54Z</time></trkpt>
<trkpt lat="46.28097634" lon="7.30769539"><ele></ele><time>2014-7-4T2:7:57Z</time></trkpt>
<trkpt lat="46.28111003" lon="7.30762322"><ele></ele><time>2014-7-4T2:8:0Z</time></trkpt>
<trkpt lat="46.28121564" lon="7.30760319"><ele></ele><time>2014-7-4T2:8:3Z</time></trkpt>
<trkpt lat="46.28127423" lon="7.30755248"><ele></ele><time>2014-7-4T2:8:6Z</time></trkpt>
<trkpt lat="46.28136006" lon="7.30748802"><ele></ele><time>2014-7-4T2:8:9Z</time></trkpt>
<trkpt lat="46.28149652" lon="7.30740203"><ele></ele><time>2014-7-4T2:8:12Z</time></trkpt>
<trkpt lat="46.28165787" lon="7.30753304"><ele></ele><time>2014-7-4T2:8:15Z</time></trkpt>
<trkpt lat="46.28168176" lon="7.30764267"><ele></ele><time>2014-7-4T2:8:18Z</time></trkpt>
<trkpt lat="46.28176164" lon="7.30774024"><ele></ele><time>2014-7-4T2:8:21Z</time></trkpt>
<trkpt lat="46.28182249" lon="7.30783294"><ele></ele><time>2014-7-4T2:8:24Z</time></trkpt>
<trkpt lat="46.28197387" lon="7.30784853"><ele></ele><time>2014-7-4T2:8:27Z</time></trkpt>
<trkpt lat="46.28209742" lon="7.30791508"><ele></ele><time>2014-7-4T2:8:30Z</time></trkpt>
<trkpt lat="46.28215249" lon="7.30794006"><ele></ele><time>2014-7-4T2:8:33Z</time></trkpt>
<trkpt lat="46.28229565" lon="7.30798390"><ele></ele><time>2014-7-4T2:8:36Z</time></trkpt>
<trkpt lat="46.28243940" lon="7.30804366"><ele></ele><time>2014-7-4T2:8:39Z</time></trkpt>
<trkpt lat="46.28249288" lon="7.30816335"><ele></ele><time>2014-7-4T2:8:42Z</time></trkpt>
<trkpt lat="46.28252749" lon="7.30824466"><ele></ele><time>2014-7-4T2:8:45Z</time></trkpt>
<trkpt lat="46.28245885" lon="7.30851347"><ele></ele><time>2014-7-4T2:8:48Z</time></trkpt>
<trkpt lat="46.28239347" lon="7.30875713"><ele></ele><time>2014-7-4T2:8:51Z</time></trkpt>
<trkpt lat="46.28236237" lon="7.30896944"><ele></ele><time>2014-7-4T2:8:54Z</time></trkpt>
<trkpt lat="46.28229523" lon="7.30914244"><ele></ele><time>2014-7-4T2:8:57Z</time></trkpt>
<trkpt lat="46.28227998" lon="7.30932106"><ele></ele><time>2014-7-4T2:9:0Z</time></trkpt>
<trkpt lat="46.28228023" lon="7.30938544"><ele></ele><time>2014-7-4T2:9:3Z</time></trkpt>
<trkpt lat="46.28226472" lon="7.30963748"><ele></ele><time>2014-7-4T2:9:6Z</time></trkpt>
<trkpt lat="46.28219130" lon="7.30981149"><ele></ele><time>2014-7-4T2:9:9Z</time></trkpt>
<trkpt lat="46.28214419" lon="7.30993127"><ele></ele><time>2014-7-4T2:9:12Z</time></trkpt>
<trkpt lat="46.28212986" lon="7.31000285"><ele></ele><time>2014-7-4T2:9:15Z</time></trkpt>
<trkpt lat="46.28216682" lon="7.31025766"><ele></ele><time>2014-7-4T2:9:18Z</time></trkpt>
<trkpt lat="46.28219549" lon="7.31037794"><ele></ele><time>2014-7-4T2:9:21Z</time></trkpt>
<trkpt lat="46.28220295" lon="7.31043267"><ele></ele><time>2014-7-4T2:9:24Z</time></trkpt>
<trkpt lat="46.28220588" lon="7.31049679"><ele></ele><time>2014-7-4T2:9:27Z</time></trkpt>
<trkpt lat="46.28222776" lon="7.31081002"><ele></ele><time>2014-7-4T2:9:30Z</time></trkpt>
<trkpt lat="46.28220756" lon="7.31115536"><ele></ele><time>2014-7-4T2:9:33Z</time></trkpt>
<trkpt lat="46.28223346" lon="7.31128335"><ele></ele><time>2014-7-4T2:9:36Z</time></trkpt>
<trkpt lat="46.28234854" lon="7.31136583"><ele></ele><time>2014-7-4T2:9:39Z</time></trkpt>
<trkpt lat="46.28238249" lon="7.31139625"><ele></ele><time>2014-7-4T2:9:42Z</time></trkpt>
<trkpt lat="46.28240352" lon="7.31149667"><ele></ele><time>2014-7-4T2:9:45Z</time></trkpt>
<trkpt lat="46.28238567" lon="7.31153313"><ele></ele><time>2014-7-4T2:9:48Z</time></trkpt>
<trkpt lat="46.28224444" lon="7.31150664"><ele></ele><time>2014-7-4T2:9:51Z</time></trkpt>
<trkpt lat="46.28210614" lon="7.31156029"><ele></ele><time>2014-7-4T2:9:54Z</time></trkpt>
<trkpt lat="46.28207722" lon="7.31156574"><ele></ele><time>2014-7-4T2:9:57Z</time></trkpt>
<trkpt lat="46.28197974" lon="7.31157135"><ele></ele><time>2014-7-4T2:10:0Z</time></trkpt>
<trkpt lat="46.28197513" lon="7.31157454"><ele></ele><time>2014-7-4T2:10:3Z</time></trkpt>
<trkpt lat="46.28204235" lon="7.31159306"><ele></ele><time>2014-7-4T2:10:6Z</time></trkpt>
<trkpt lat="46.28213849" lon="7.31164536"><ele></ele><time>2014-7-4T2:10:9Z</time></trkpt>
<trkpt lat="46.28222373" lon="7.31182633"><ele></ele><time>2014-7-4T2:10:12Z</time></trkpt>
<trkpt lat="46.28223153" lon="7.31187494"><ele></ele><time>2014-7-4T2:10:15Z</time></trkpt>
<trkpt lat="46.28226883" lon="7.31204677"><ele></ele><time>2014-7-4T2:10:18Z</time></trkpt>
<trkpt lat="46.28237159" lon="7.31226965"><ele></ele><time>2014-7-4T2:10:21Z</time></trkpt>
<trkpt lat="46.28238953" lon="7.31229169"><ele></ele><time>2014-7-4T2:10:24Z</time></trkpt>
<trkpt lat="46.28246337" lon="7.31237425"><ele></ele><time>2014-7-4T2:10:27Z</time></trkpt>
<trkpt lat="46.28261534" lon="7.31249688"><ele></ele><time>2014-7-4T2:10:30Z</time></trkpt>
<trkpt lat="46.28266336" lon="7.31254810"><ele></ele><time>2014-7-4T2:10:33Z</time></trkpt>
<trkpt lat="46.28272505" lon="7.31274448"><ele></ele><time>2014-7-4T2:10:36Z</time></trkpt>
<trkpt lat="46.28272723" lon="7.31277734"><ele></ele><time>2014-7-4T2:10:39Z</time></trkpt>
<trkpt lat="46.28273738" lon="7.31295923"><ele></ele><time>2014-7-4T2:10:42Z</time></trkpt>
<trkpt lat="46.28278264" lon="7.31315704"><ele></ele><time>2014-7-4T2:10:45Z</time></trkpt>
<trkpt lat="46.28279789" lon="7.31319836"><ele></ele><time>2014-7-4T2:10:48Z</time></trkpt>
<trkpt lat="46.28283570" lon="7.31335586"><ele></ele><time>2014-7-4T2:10:51Z</time></trkpt>
<trkpt lat="46.28280938" lon="7.31344085"><ele></ele><time>2014-7-4T2:10:54Z</time></trkpt>
<trkpt lat="46.28270175" lon="7.31356474"><ele></ele><time>2014-7-4T2:10:57Z</time></trkpt>
<trkpt lat="46.28266999" lon="7.31359567"><ele></ele><time>2014-7-4T2:11:0Z</time></trkpt>
<trkpt lat="46.28265054" lon="7.31361587"><ele></ele><time>2014-7-4T2:11:3Z</time></trkpt>
<trkpt lat="46.28256949" lon="7.31370077"><ele></ele><time>2014-7-4T2:11:6Z</time></trkpt>
<trkpt lat="46.28256672" lon="7.31370907"><ele></ele><time>2014-7-4T2:11:9Z</time></trkpt>
<trkpt lat="46.28252598" lon="7.31382399"><ele></ele><time>2014-7-4T2:11:12Z</time></trkpt>
<trkpt lat="46.28247930" lon="7.31401166"><ele></ele><time>2014-7-4T2:11:15Z</time></trkpt>
<trkpt lat="46.28245533" lon="7.31418164"><ele></ele><time>2014-7-4T2:11:18Z</time></trkpt>
<trkpt lat="46.28235323" lon="7.31448205"><ele></ele><time>2014-7-4T2:11:21Z</time></trkpt>
<trkpt lat="46.28224737" lon="7.31471423"><ele></ele><time>2014-7-4T2:11:24Z</time></trkpt>
<trkpt lat="46.28215215" lon="7.31505789"><ele></ele><time>2014-7-4T2:11:27Z</time></trkpt>
<trkpt lat="46.28214226" lon="7.31516954"><ele></ele><time>2014-7-4T2:11:30Z</time></trkpt>
<trkpt lat="46.28213237" lon="7.31531136"><ele></ele><time>2014-7-4T2:11:33Z</time></trkpt>
<trkpt lat="46.28211309" lon="7.31555812"><ele></ele><time>2014-7-4T2:11:36Z</time></trkpt>
<trkpt lat="46.28212290" lon="7.31570388"><ele></ele><time>2014-7-4T2:11:39Z</time></trkpt>
<trkpt lat="46.28212290" lon="7.31573087"><ele></ele><time>2014-7-4T2:11:42Z</time></trkpt>
<trkpt lat="46.28208686" lon="7.31577253"><ele></ele><time>2014-7-4T2:11:45Z</time></trkpt>
<trkpt lat="46.28203338" lon="7.31575007"><ele></ele><time>2014-7-4T2:11:48Z</time></trkpt>
<trkpt lat="46.28195216" lon="7.31578133"><ele></ele><time>2014-7-4T2:11:51Z</time></trkpt>
<trkpt lat="46.28187002" lon="7.31576524"><ele></ele><time>2014-7-4T2:11:54Z</time></trkpt>
<trkpt lat="46.28185770" lon="7.31576222"><ele></ele><time>2014-7-4T2:11:57Z</time></trkpt>
<trkpt lat="46.28174907" lon="7.31584696"><ele></ele><time>2014-7-4T2:12:0Z</time></trkpt>
<trkpt lat="46.28173582" lon="7.31584210"><ele></ele><time>2014-7-4T2:12:3Z</time></trkpt>
<trkpt lat="46.28165703" lon="7.31580086"><ele></ele><time>2014-7-4T2:12:6Z</time></trkpt>
<trkpt lat="46.28155804" lon="7.31577647"><ele></ele><time>2014-7-4T2:12:9Z</time></trkpt>
<trkpt lat="46.28154824" lon="7.31577496"><ele></ele><time>2014-7-4T2:12:12Z</time></trkpt>
<trkpt lat="46.28151052" lon="7.31578359"><ele></ele><time>2014-7-4T2:12:15Z</time></trkpt>
<trkpt lat="46.28145729" lon="7.31576029"><ele></ele><time>2014-7-4T2:12:18Z</time></trkpt>
<trkpt lat="46.28144799" lon="7.31575677"><ele></ele><time>2014-7-4T2:12:21Z</time></trkpt>
<trkpt lat="46.28133684" lon="7.31573406"><ele></ele><time>2014-7-4T2:12:24Z</time></trkpt>
<trkpt lat="46.28125009" lon="7.31574705"><ele></ele><time>2014-7-4T2:12:27Z</time></trkpt>
<trkpt lat="46.28115839" lon="7.31572928"><ele></ele><time>2014-7-4T2:12:30Z</time></trkpt>
<trkpt lat="46.28105186" lon="7.31565837"><ele></ele><time>2014-7-4T2:12:33Z</time></trkpt>
<trkpt lat="46.28095237" lon="7.31561059"><ele></ele><time>2014-7-4T2:12:36Z</time></trkpt>
<trkpt lat="46.28084633" lon="7.31559140"><ele></ele><time>2014-7-4T2:12:39Z</time></trkpt>
<trkpt lat="46.28076084" lon="7.31560280"><ele></ele><time>2014-7-4T2:12:42Z</time></trkpt>
<trkpt lat="46.28068079" lon="7.31560472"><ele></ele><time>2014-7-4T2:12:45Z</time></trkpt>
<trkpt lat="46.28057795" lon="7.31564169"><ele></ele><time>2014-7-4T2:12:48Z</time></trkpt>
<trkpt lat="46.28051324" lon="7.31566600"><ele></ele><time>2014-7-4T2:12:51Z</time></trkpt>
<trkpt lat="46.28043512" lon="7.31571377"><ele></ele><time>2014-7-4T2:12:54Z</time></trkpt>
<trkpt lat="46.28032213" lon="7.31579843"><ele></ele><time>2014-7-4T2:12:57Z</time></trkpt>
<trkpt lat="46.28019137" lon="7.31595685"><ele></ele><time>2014-7-4T2:13:0Z</time></trkpt>
<trkpt lat="46.28008584" lon="7.31605777"><ele></ele><time>2014-7-4T2:13:3Z</time></trkpt>
<trkpt lat="46.28000362" lon="7.31607595"><ele></ele><time>2014-7-4T2:13:6Z</time></trkpt>
<trkpt lat="46.27989792" lon="7.31611594"><ele></ele><time>2014-7-4T2:13:9Z</time></trkpt>
<trkpt lat="46.27976264" lon="7.31614569"><ele></ele><time>2014-7-4T2:13:12Z</time></trkpt>
<trkpt lat="46.27963322" lon="7.31618869"><ele></ele><time>2014-7-4T2:13:15Z</time></trkpt>
<trkpt lat="46.27952208" lon="7.31623094"><ele></ele><time>2014-7-4T2:13:18Z</time></trkpt>
<trkpt lat="46.27941236" lon="7.31625935"><ele></ele><time>2014-7-4T2:13:21Z</time></trkpt>
<trkpt lat="46.27935763" lon="7.31631350"><ele></ele><time>2014-7-4T2:13:24Z</time></trkpt>
<trkpt lat="46.27930063" lon="7.31629070"><ele></ele><time>2014-7-4T2:13:27Z</time></trkpt>
<trkpt lat="46.27930474" lon="7.31630176"><ele></ele><time>2014-7-4T2:13:30Z</time></trkpt>
<trkpt lat="46.27930775" lon="7.31630067"><ele></ele><time>2014-7-4T2:13:33Z</time></trkpt>
<trkpt lat="46.27931588" lon="7.31624234"><ele></ele><time>2014-7-4T2:13:36Z</time></trkpt>
<trkpt lat="46.27944849" lon="7.31607746"><ele></ele><time>2014-7-4T2:13:39Z</time></trkpt>
<trkpt lat="46.27960045" lon="7.31584017"><ele></ele><time>2014-7-4T2:13:42Z</time></trkpt>
<trkpt lat="46.27977530" lon="7.31562316"><ele></ele><time>2014-7-4T2:13:45Z</time></trkpt>
<trkpt lat="46.27996230" lon="7.31546198"><ele></ele><time>2014-7-4T2:13:48Z</time></trkpt>
<trkpt lat="46.28004896" lon="7.31539132"><ele></ele><time>2014-7-4T2:13:51Z</time></trkpt>
<trkpt lat="46.28005307" lon="7.31538436"><ele></ele><time>2014-7-4T2:13:54Z</time></trkpt>
<trkpt lat="46.28006682" lon="7.31533768"><ele></ele><time>2014-7-4T2:13:57Z</time></trkpt>
<trkpt lat="46.28014963" lon="7.31512813"><ele></ele><time>2014-7-4T2:14:0Z</time></trkpt>
<trkpt lat="46.28025072" lon="7.31495387"><ele></ele><time>2014-7-4T2:14:3Z</time></trkpt>
<trkpt lat="46.28037603" lon="7.31478757"><ele></ele><time>2014-7-4T2:14:6Z</time></trkpt>
<trkpt lat="46.28045306" lon="7.31467064"><ele></ele><time>2014-7-4T2:14:9Z</time></trkpt>
<trkpt lat="46.28045842" lon="7.31462572"><ele></ele><time>2014-7-4T2:14:12Z</time></trkpt>
<trkpt lat="46.28040654" lon="7.31464986"><ele></ele><time>2014-7-4T2:14:15Z</time></trkpt>
<trkpt lat="46.28032439" lon="7.31470426"><ele></ele><time>2014-7-4T2:14:18Z</time></trkpt>
<trkpt lat="46.28022926" lon="7.31468456"><ele></ele><time>2014-7-4T2:14:21Z</time></trkpt>
<trkpt lat="46.28017696" lon="7.31462530"><ele></ele><time>2014-7-4T2:14:24Z</time></trkpt>
<trkpt lat="46.28005902" lon="7.31459663"><ele></ele><time>2014-7-4T2:14:27Z</time></trkpt>
<trkpt lat="46.27992885" lon="7.31453452"><ele></ele><time>2014-7-4T2:14:30Z</time></trkpt>
<trkpt lat="46.27983824" lon="7.31451089"><ele></ele><time>2014-7-4T2:14:33Z</time></trkpt>
<trkpt lat="46.27979407" lon="7.31445598"><ele></ele><time>2014-7-4T2:14:36Z</time></trkpt>
<trkpt lat="46.27978217" lon="7.31432959"><ele></ele><time>2014-7-4T2:14:39Z</time></trkpt>
<trkpt lat="46.27983908" lon="7.31399540"><ele></ele><time>2014-7-4T2:14:42Z</time></trkpt>
<trkpt lat="46.27986733" lon="7.31376548"><ele></ele><time>2014-7-4T2:14:45Z</time></trkpt>
<trkpt lat="46.27987077" lon="7.31359349"><ele></ele><time>2014-7-4T2:14:48Z</time></trkpt>
<trkpt lat="46.27988434" lon="7.31333164"><ele></ele><time>2014-7-4T2:14:51Z</time></trkpt>
<trkpt lat="46.27985392" lon="7.31309719"><ele></ele><time>2014-7-4T2:14:54Z</time></trkpt>
<trkpt lat="46.27983397" lon="7.31306459"><ele></ele><time>2014-7-4T2:14:57Z</time></trkpt>
<trkpt lat="46.27980539" lon="7.31301203"><ele></ele><time>2014-7-4T2:15:0Z</time></trkpt>
<trkpt lat="46.27967832" lon="7.31292017"><ele></ele><time>2014-7-4T2:15:3Z</time></trkpt>
<trkpt lat="46.27951386" lon="7.31294154"><ele></ele><time>2014-7-4T2:15:6Z</time></trkpt>
<trkpt lat="46.27944597" lon="7.31300550"><ele></ele><time>2014-7-4T2:15:9Z</time></trkpt>
<trkpt lat="46.27941127" lon="7.31292889"><ele></ele><time>2014-7-4T2:15:12Z</time></trkpt>
<trkpt lat="46.27927808" lon="7.31296618"><ele></ele><time>2014-7-4T2:15:15Z</time></trkpt>
<trkpt lat="46.27915914" lon="7.31298538"><ele></ele><time>2014-7-4T2:15:18Z</time></trkpt>
<trkpt lat="46.27909276" lon="7.31299242"><ele></ele><time>2014-7-4T2:15:21Z</time></trkpt>
<trkpt lat="46.27897843" lon="7.31306199"><ele></ele><time>2014-7-4T2:15:24Z</time></trkpt>
<trkpt lat="46.27900139" lon="7.31309124"><ele></ele><time>2014-7-4T2:15:27Z</time></trkpt>
<trkpt lat="46.27898312" lon="7.31310633"><ele></ele><time>2014-7-4T2:15:30Z</time></trkpt>
<trkpt lat="46.27892294" lon="7.31312335"><ele></ele><time>2014-7-4T2:15:33Z</time></trkpt>
<trkpt lat="46.27880878" lon="7.31315888"><ele></ele><time>2014-7-4T2:15:36Z</time></trkpt>
<trkpt lat="46.27875128" lon="7.31319426"><ele></ele><time>2014-7-4T2:15:39Z</time></trkpt>
<trkpt lat="46.27866612" lon="7.31322653"><ele></ele><time>2014-7-4T2:15:42Z</time></trkpt>
<trkpt lat="46.27857023" lon="7.31327388"><ele></ele><time>2014-7-4T2:15:45Z</time></trkpt>
<trkpt lat="46.27842640" lon="7.31326575"><ele></ele><time>2014-7-4T2:15:48Z</time></trkpt>
<trkpt lat="46.27826806" lon="7.31326617"><ele></ele><time>2014-7-4T2:15:51Z</time></trkpt>
<trkpt lat="46.27811677" lon="7.31320499"><ele></ele><time>2014-7-4T2:15:54Z</time></trkpt>
<trkpt lat="46.27811752" lon="7.31288170"><ele></ele><time>2014-7-4T2:15:57Z</time></trkpt>
<trkpt lat="46.27808265" lon="7.31280140"><ele></ele><time>2014-7-4T2:16:0Z</time></trkpt>
<trkpt lat="46.27803932" lon="7.31274775"><ele></ele><time>2014-7-4T2:16:3Z</time></trkpt>
<trkpt lat="46.27802214" lon="7.31270425"><ele></ele><time>2014-7-4T2:16:6Z</time></trkpt>
<trkpt lat="46.27791669" lon="7.31259805"><ele></ele><time>2014-7-4T2:16:9Z</time></trkpt>
<trkpt lat="46.27789523" lon="7.31255857"><ele></ele><time>2014-7-4T2:16:12Z</time></trkpt>
<trkpt lat="46.27784260" lon="7.31254173"><ele></ele><time>2014-7-4T2:16:15Z</time></trkpt>
<trkpt lat="46.27779189" lon="7.31253024"><ele></ele><time>2014-7-4T2:16:18Z</time></trkpt>
<trkpt lat="46.27774989" lon="7.31249244"><ele></ele><time>2014-7-4T2:16:21Z</time></trkpt>
<trkpt lat="46.27752853" lon="7.31257835"><ele></ele><time>2014-7-4T2:16:24Z</time></trkpt>
<trkpt lat="46.27740716" lon="7.31268086"><ele></ele><time>2014-7-4T2:16:27Z</time></trkpt>
<trkpt lat="46.27736935" lon="7.31265815"><ele></ele><time>2014-7-4T2:16:30Z</time></trkpt>
<trkpt lat="46.27738754" lon="7.31250728"><ele></ele><time>2014-7-4T2:16:33Z</time></trkpt>
<trkpt lat="46.27732409" lon="7.31240937"><ele></ele><time>2014-7-4T2:16:36Z</time></trkpt>
<trkpt lat="46.27718244" lon="7.31232757"><ele></ele><time>2014-7-4T2:16:39Z</time></trkpt>
<trkpt lat="46.27714078" lon="7.31232254"><ele></ele><time>2014-7-4T2:16:42Z</time></trkpt>
<trkpt lat="46.27701765" lon="7.31231022"><ele></ele><time>2014-7-4T2:16:45Z</time></trkpt>
<trkpt lat="46.27701807" lon="7.31232069"><ele></ele><time>2014-7-4T2:16:48Z</time></trkpt>
<trkpt lat="46.27692117" lon="7.31226018"><ele></ele><time>2014-7-4T2:16:51Z</time></trkpt>
<trkpt lat="46.27678254" lon="7.31218784"><ele></ele><time>2014-7-4T2:16:54Z</time></trkpt>
<trkpt lat="46.27667567" lon="7.31213059"><ele></ele><time>2014-7-4T2:16:57Z</time></trkpt>
<trkpt lat="46.27660920" lon="7.31208198"><ele></ele><time>2014-7-4T2:17:0Z</time></trkpt>
<trkpt lat="46.27660216" lon="7.31187260"><ele></ele><time>2014-7-4T2:17:3Z</time></trkpt>
<trkpt lat="46.27657986" lon="7.31184762"><ele></ele><time>2014-7-4T2:17:6Z</time></trkpt>
<trkpt lat="46.27656704" lon="7.31163514"><ele></ele><time>2014-7-4T2:17:9Z</time></trkpt>
<trkpt lat="46.27650887" lon="7.31145199"><ele></ele><time>2014-7-4T2:17:12Z</time></trkpt>
<trkpt lat="46.27649420" lon="7.31139433"><ele></ele><time>2014-7-4T2:17:15Z</time></trkpt>
<trkpt lat="46.27652328" lon="7.31118109"><ele></ele><time>2014-7-4T2:17:18Z</time></trkpt>
<trkpt lat="46.27654248" lon="7.31095905"><ele></ele><time>2014-7-4T2:17:21Z</time></trkpt>
<trkpt lat="46.27651859" lon="7.31074465"><ele></ele><time>2014-7-4T2:17:24Z</time></trkpt>
<trkpt lat="46.27654659" lon="7.31051984"><ele></ele><time>2014-7-4T2:17:27Z</time></trkpt>
<trkpt lat="46.27657173" lon="7.31033645"><ele></ele><time>2014-7-4T2:17:30Z</time></trkpt>
<trkpt lat="46.27665455" lon="7.31014903"><ele></ele><time>2014-7-4T2:17:33Z</time></trkpt>
<trkpt lat="46.27667055" lon="7.31008600"><ele></ele><time>2014-7-4T2:17:36Z</time></trkpt>
<trkpt lat="46.27666553" lon="7.31001542"><ele></ele><time>2014-7-4T2:17:39Z</time></trkpt>
<trkpt lat="46.27664918" lon="7.30979682"><ele></ele><time>2014-7-4T2:17:42Z</time></trkpt>
<trkpt lat="46.27663577" lon="7.30976606"><ele></ele><time>2014-7-4T2:17:45Z</time></trkpt>
<trkpt lat="46.27665279" lon="7.30969355"><ele></ele><time>2014-7-4T2:17:48Z</time></trkpt>
<trkpt lat="46.27669578" lon="7.30951779"><ele></ele><time>2014-7-4T2:17:51Z</time></trkpt>
<trkpt lat="46.27665119" lon="7.30936339"><ele></ele><time>2014-7-4T2:17:54Z</time></trkpt>
<trkpt lat="46.27660928" lon="7.30927588"><ele></ele><time>2014-7-4T2:17:57Z</time></trkpt>
<trkpt lat="46.27669654" lon="7.30892166"><ele></ele><time>2014-7-4T2:18:0Z</time></trkpt>
<trkpt lat="46.27679352" lon="7.30866149"><ele></ele><time>2014-7-4T2:18:3Z</time></trkpt>
<trkpt lat="46.27679218" lon="7.30864657"><ele></ele><time>2014-7-4T2:18:6Z</time></trkpt>
<trkpt lat="46.27680844" lon="7.30845253"><ele></ele><time>2014-7-4T2:18:9Z</time></trkpt>
<trkpt lat="46.27681338" lon="7.30831347"><ele></ele><time>2014-7-4T2:18:12Z</time></trkpt>
<trkpt lat="46.27676703" lon="7.30822697"><ele></ele><time>2014-7-4T2:18:15Z</time></trkpt>
<trkpt lat="46.27675924" lon="7.30822429"><ele></ele><time>2014-7-4T2:18:18Z</time></trkpt>
<trkpt lat="46.27651507" lon="7.30841557"><ele></ele><time>2014-7-4T2:18:21Z</time></trkpt>
<trkpt lat="46.27642044" lon="7.30851774"><ele></ele><time>2014-7-4T2:18:24Z</time></trkpt>
<trkpt lat="46.27617535" lon="7.30888789"><ele></ele><time>2014-7-4T2:18:27Z</time></trkpt>
<trkpt lat="46.27611819" lon="7.30896123"><ele></ele><time>2014-7-4T2:18:30Z</time></trkpt>
<trkpt lat="46.27592213" lon="7.30915837"><ele></ele><time>2014-7-4T2:18:33Z</time></trkpt>
<trkpt lat="46.27577537" lon="7.30918393"><ele></ele><time>2014-7-4T2:18:36Z</time></trkpt>
<trkpt lat="46.27572726" lon="7.30926532"><ele></ele><time>2014-7-4T2:18:39Z</time></trkpt>
<trkpt lat="46.27558200" lon="7.30940773"><ele></ele><time>2014-7-4T2:18:42Z</time></trkpt>
<trkpt lat="46.27534035" lon="7.30964058"><ele></ele><time>2014-7-4T2:18:45Z</time></trkpt>
<trkpt lat="46.27515108" lon="7.30976254"><ele></ele><time>2014-7-4T2:18:48Z</time></trkpt>
<trkpt lat="46.27501169" lon="7.30979850"><ele></ele><time>2014-7-4T2:18:51Z</time></trkpt>
<trkpt lat="46.27502686" lon="7.30978148"><ele></ele><time>2014-7-4T2:18:54Z</time></trkpt>
<trkpt lat="46.27494640" lon="7.30975030"><ele></ele><time>2014-7-4T2:18:57Z</time></trkpt>
<trkpt lat="46.27491748" lon="7.30973546"><ele></ele><time>2014-7-4T2:19:0Z</time></trkpt>
<trkpt lat="46.27480608" lon="7.30944520"><ele></ele><time>2014-7-4T2:19:3Z</time></trkpt>
<trkpt lat="46.27477222" lon="7.30932039"><ele></ele><time>2014-7-4T2:19:6Z</time></trkpt>
<trkpt lat="46.27475294" lon="7.30888453"><ele></ele><time>2014-7-4T2:19:9Z</time></trkpt>
<trkpt lat="46.27462629" lon="7.30875746"><ele></ele><time>2014-7-4T2:19:12Z</time></trkpt>
<trkpt lat="46.27448590" lon="7.30870214"><ele></ele><time>2014-7-4T2:19:15Z</time></trkpt>
<trkpt lat="46.27439043" lon="7.30863165"><ele></ele><time>2014-7-4T2:19:18Z</time></trkpt>
<trkpt lat="46.27436846" lon="7.30858832"><ele></ele><time>2014-7-4T2:19:21Z</time></trkpt>
<trkpt lat="46.27426285" lon="7.30835949"><ele></ele><time>2014-7-4T2:19:24Z</time></trkpt>
<trkpt lat="46.27422027" lon="7.30816377"><ele></ele><time>2014-7-4T2:19:27Z</time></trkpt>
<trkpt lat="46.27420812" lon="7.30804534"><ele></ele><time>2014-7-4T2:19:30Z</time></trkpt>
<trkpt lat="46.27441515" lon="7.30746028"><ele></ele><time>2014-7-4T2:19:33Z</time></trkpt>
<trkpt lat="46.27443979" lon="7.30739222"><ele></ele><time>2014-7-4T2:19:36Z</time></trkpt>
<trkpt lat="46.27442454" lon="7.30732810"><ele></ele><time>2014-7-4T2:19:39Z</time></trkpt>
<trkpt lat="46.27452060" lon="7.30727755"><ele></ele><time>2014-7-4T2:19:42Z</time></trkpt>
<trkpt lat="46.27456930" lon="7.30726272"><ele></ele><time>2014-7-4T2:19:45Z</time></trkpt>
<trkpt lat="46.27460400" lon="7.30724327"><ele></ele><time>2014-7-4T2:19:48Z</time></trkpt>
<trkpt lat="46.27453309" lon="7.30723766"><ele></ele><time>2014-7-4T2:19:51Z</time></trkpt>
<trkpt lat="46.27449067" lon="7.30720430"><ele></ele><time>2014-7-4T2:19:54Z</time></trkpt>
<trkpt lat="46.27446678" lon="7.30717379"><ele></ele><time>2014-7-4T2:19:57Z</time></trkpt>
<trkpt lat="46.27442219" lon="7.30705409"><ele></ele><time>2014-7-4T2:20:0Z</time></trkpt>
<trkpt lat="46.27436603" lon="7.30686072"><ele></ele><time>2014-7-4T2:20:3Z</time></trkpt>
<trkpt lat="46.27434424" lon="7.30680842"><ele></ele><time>2014-7-4T2:20:6Z</time></trkpt>
<trkpt lat="46.27424793" lon="7.30661379"><ele></ele><time>2014-7-4T2:20:9Z</time></trkpt>
<trkpt lat="46.27423863" lon="7.30656937"><ele></ele><time>2014-7-4T2:20:12Z</time></trkpt>
<trkpt lat="46.27424508" lon="7.30645219"><ele></ele><time>2014-7-4T2:20:15Z</time></trkpt>
<trkpt lat="46.27424408" lon="7.30639117"><ele></ele><time>2014-7-4T2:20:18Z</time></trkpt>
<trkpt lat="46.27424768" lon="7.30634993"><ele></ele><time>2014-7-4T2:20:21Z</time></trkpt>
<trkpt lat="46.27421910" lon="7.30610669"><ele></ele><time>2014-7-4T2:20:24Z</time></trkpt>
<trkpt lat="46.27420485" lon="7.30594584"><ele></ele><time>2014-7-4T2:20:27Z</time></trkpt>
<trkpt lat="46.27416898" lon="7.30570352"><ele></ele><time>2014-7-4T2:20:30Z</time></trkpt>
<trkpt lat="46.27417275" lon="7.30541635"><ele></ele><time>2014-7-4T2:20:33Z</time></trkpt>
<trkpt lat="46.27430149" lon="7.30500933"><ele></ele><time>2014-7-4T2:20:36Z</time></trkpt>
<trkpt lat="46.27435547" lon="7.30476449"><ele></ele><time>2014-7-4T2:20:39Z</time></trkpt>
<trkpt lat="46.27451146" lon="7.30453424"><ele></ele><time>2014-7-4T2:20:42Z</time></trkpt>
<trkpt lat="46.27475613" lon="7.30423316"><ele></ele><time>2014-7-4T2:20:45Z</time></trkpt>
<trkpt lat="46.27475839" lon="7.30418027"><ele></ele><time>2014-7-4T2:20:48Z</time></trkpt>
<trkpt lat="46.27456913" lon="7.30426426"><ele></ele><time>2014-7-4T2:20:51Z</time></trkpt>
<trkpt lat="46.27446083" lon="7.30417030"><ele></ele><time>2014-7-4T2:20:54Z</time></trkpt>
<trkpt lat="46.27441113" lon="7.30406594"><ele></ele><time>2014-7-4T2:20:57Z</time></trkpt>
<trkpt lat="46.27443736" lon="7.30362623"><ele></ele><time>2014-7-4T2:21:0Z</time></trkpt>
<trkpt lat="46.27443527" lon="7.30362388"><ele></ele><time>2014-7-4T2:21:3Z</time></trkpt>
<trkpt lat="46.27440794" lon="7.30362497"><ele></ele><time>2014-7-4T2:21:6Z</time></trkpt>
<trkpt lat="46.27437073" lon="7.30361097"><ele></ele><time>2014-7-4T2:21:9Z</time></trkpt>
<trkpt lat="46.27437140" lon="7.30356487"><ele></ele><time>2014-7-4T2:21:12Z</time></trkpt>
<trkpt lat="46.27435690" lon="7.30351333"><ele></ele><time>2014-7-4T2:21:15Z</time></trkpt>
<trkpt lat="46.27434474" lon="7.30348005"><ele></ele><time>2014-7-4T2:21:18Z</time></trkpt>
<trkpt lat="46.27425598" lon="7.30331585"><ele></ele><time>2014-7-4T2:21:21Z</time></trkpt>
<trkpt lat="46.27417099" lon="7.30327964"><ele></ele><time>2014-7-4T2:21:24Z</time></trkpt>
<trkpt lat="46.27400528" lon="7.30322239"><ele></ele><time>2014-7-4T2:21:27Z</time></trkpt>
<trkpt lat="46.27400989" lon="7.30308929"><ele></ele><time>2014-7-4T2:21:30Z</time></trkpt>
<trkpt lat="46.27396077" lon="7.30304570"><ele></ele><time>2014-7-4T2:21:33Z</time></trkpt>
<trkpt lat="46.27394803" lon="7.30300253"><ele></ele><time>2014-7-4T2:21:36Z</time></trkpt>
<trkpt lat="46.27389908" lon="7.30292525"><ele></ele><time>2014-7-4T2:21:39Z</time></trkpt>
<trkpt lat="46.27388106" lon="7.30290254"><ele></ele><time>2014-7-4T2:21:42Z</time></trkpt>
<trkpt lat="46.27365123" lon="7.30283355"><ele></ele><time>2014-7-4T2:21:45Z</time></trkpt>
<trkpt lat="46.27357059" lon="7.30263918"><ele></ele><time>2014-7-4T2:21:48Z</time></trkpt>
<trkpt lat="46.27355316" lon="7.30261437"><ele></ele><time>2014-7-4T2:21:51Z</time></trkpt>
<trkpt lat="46.27348526" lon="7.30256584"><ele></ele><time>2014-7-4T2:21:54Z</time></trkpt>
<trkpt lat="46.27328519" lon="7.30258134"><ele></ele><time>2014-7-4T2:21:57Z</time></trkpt>
<trkpt lat="46.27311026" lon="7.30249425"><ele></ele><time>2014-7-4T2:22:0Z</time></trkpt>
<trkpt lat="46.27313448" lon="7.30236056"><ele></ele><time>2014-7-4T2:22:3Z</time></trkpt>
<trkpt lat="46.27296374" lon="7.30231748"><ele></ele><time>2014-7-4T2:22:6Z</time></trkpt>
<trkpt lat="46.27275956" lon="7.30235419"><ele></ele><time>2014-7-4T2:22:9Z</time></trkpt>
<trkpt lat="46.27259687" lon="7.30235017"><ele></ele><time>2014-7-4T2:22:12Z</time></trkpt>
<trkpt lat="46.27251967" lon="7.30220675"><ele></ele><time>2014-7-4T2:22:15Z</time></trkpt>
<trkpt lat="46.27246879" lon="7.30210014"><ele></ele><time>2014-7-4T2:22:18Z</time></trkpt>
<trkpt lat="46.27246544" lon="7.30205102"><ele></ele><time>2014-7-4T2:22:21Z</time></trkpt>
<trkpt lat="46.27247449" lon="7.30194423"><ele></ele><time>2014-7-4T2:22:24Z</time></trkpt>
<trkpt lat="46.27242286" lon="7.30189838"><ele></ele><time>2014-7-4T2:22:27Z</time></trkpt>
<trkpt lat="46.27237106" lon="7.30185824"><ele></ele><time>2014-7-4T2:22:30Z</time></trkpt>
<trkpt lat="46.27230803" lon="7.30184290"><ele></ele><time>2014-7-4T2:22:33Z</time></trkpt>
<trkpt lat="46.27224952" lon="7.30173536"><ele></ele><time>2014-7-4T2:22:36Z</time></trkpt>
<trkpt lat="46.27221608" lon="7.30164684"><ele></ele><time>2014-7-4T2:22:39Z</time></trkpt>
<trkpt lat="46.27219227" lon="7.30152983"><ele></ele><time>2014-7-4T2:22:42Z</time></trkpt>
<trkpt lat="46.27208490" lon="7.30152539"><ele></ele><time>2014-7-4T2:22:45Z</time></trkpt>
<trkpt lat="46.27197317" lon="7.30155112"><ele></ele><time>2014-7-4T2:22:48Z</time></trkpt>
<trkpt lat="46.27189865" lon="7.30160544"><ele></ele><time>2014-7-4T2:22:51Z</time></trkpt>
<trkpt lat="46.27189228" lon="7.30158113"><ele></ele><time>2014-7-4T2:22:54Z</time></trkpt>
<trkpt lat="46.27187208" lon="7.30161097"><ele></ele><time>2014-7-4T2:22:57Z</time></trkpt>
<trkpt lat="46.27175138" lon="7.30177324"><ele></ele><time>2014-7-4T2:23:0Z</time></trkpt>
<trkpt lat="46.27168022" lon="7.30191733"><ele></ele><time>2014-7-4T2:23:3Z</time></trkpt>
<trkpt lat="46.27167930" lon="7.30196376"><ele></ele><time>2014-7-4T2:23:6Z</time></trkpt>
<trkpt lat="46.27161308" lon="7.30214305"><ele></ele><time>2014-7-4T2:23:9Z</time></trkpt>
<trkpt lat="46.27154066" lon="7.30219150"><ele></ele><time>2014-7-4T2:23:12Z</time></trkpt>
<trkpt lat="46.27148249" lon="7.30224506"><ele></ele><time>2014-7-4T2:23:15Z</time></trkpt>
<trkpt lat="46.27143245" lon="7.30232829"><ele></ele><time>2014-7-4T2:23:18Z</time></trkpt>
<trkpt lat="46.27142784" lon="7.30238244"><ele></ele><time>2014-7-4T2:23:21Z</time></trkpt>
<trkpt lat="46.27132583" lon="7.30250473"><ele></ele><time>2014-7-4T2:23:24Z</time></trkpt>
<trkpt lat="46.27109676" lon="7.30255117"><ele></ele><time>2014-7-4T2:23:27Z</time></trkpt>
<trkpt lat="46.27099022" lon="7.30255653"><ele></ele><time>2014-7-4T2:23:30Z</time></trkpt>
<trkpt lat="46.27086399" lon="7.30256382"><ele></ele><time>2014-7-4T2:23:33Z</time></trkpt>
<trkpt lat="46.27082879" lon="7.30259014"><ele></ele><time>2014-7-4T2:23:36Z</time></trkpt>
<trkpt lat="46.27061144" lon="7.30264756"><ele></ele><time>2014-7-4T2:23:39Z</time></trkpt>
<trkpt lat="46.27048178" lon="7.30270808"><ele></ele><time>2014-7-4T2:23:42Z</time></trkpt>
<trkpt lat="46.27047214" lon="7.30266985"><ele></ele><time>2014-7-4T2:23:45Z</time></trkpt>
<trkpt lat="46.27044716" lon="7.30266583"><ele></ele><time>2014-7-4T2:23:48Z</time></trkpt>
<trkpt lat="46.27033853" lon="7.30273716"><ele></ele><time>2014-7-4T2:23:51Z</time></trkpt>
<trkpt lat="46.27033669" lon="7.30273800"><ele></ele><time>2014-7-4T2:23:54Z</time></trkpt>
<trkpt lat="46.27029813" lon="7.30280522"><ele></ele><time>2014-7-4T2:23:57Z</time></trkpt>
<trkpt lat="46.27027139" lon="7.30282676"><ele></ele><time>2014-7-4T2:24:0Z</time></trkpt>
<trkpt lat="46.27005413" lon="7.30298694"><ele></ele><time>2014-7-4T2:24:3Z</time></trkpt>
<trkpt lat="46.27001348" lon="7.30301033"><ele></ele><time>2014-7-4T2:24:6Z</time></trkpt>
<trkpt lat="46.26994902" lon="7.30303388"><ele></ele><time>2014-7-4T2:24:9Z</time></trkpt>
<trkpt lat="46.26971743" lon="7.30310923"><ele></ele><time>2014-7-4T2:24:12Z</time></trkpt>
<trkpt lat="46.26953068" lon="7.30311108"><ele></ele><time>2014-7-4T2:24:15Z</time></trkpt>
<trkpt lat="46.26941216" lon="7.30311309"><ele></ele><time>2014-7-4T2:24:18Z</time></trkpt>
<trkpt lat="46.26937562" lon="7.30310546"><ele></ele><time>2014-7-4T2:24:21Z</time></trkpt>
<trkpt lat="46.26927068" lon="7.30315852"><ele></ele><time>2014-7-4T2:24:24Z</time></trkpt>
<trkpt lat="46.26915333" lon="7.30319708"><ele></ele><time>2014-7-4T2:24:27Z</time></trkpt>
<trkpt lat="46.26911335" lon="7.30318744"><ele></ele><time>2014-7-4T2:24:30Z</time></trkpt>
<trkpt lat="46.26906104" lon="7.30320965"><ele></ele><time>2014-7-4T2:24:33Z</time></trkpt>
<trkpt lat="46.26898779" lon="7.30322449"><ele></ele><time>2014-7-4T2:24:36Z</time></trkpt>
<trkpt lat="46.26888787" lon="7.30331426"><ele></ele><time>2014-7-4T2:24:39Z</time></trkpt>
<trkpt lat="46.26876877" lon="7.30335776"><ele></ele><time>2014-7-4T2:24:42Z</time></trkpt>
<trkpt lat="46.26866207" lon="7.30340352"><ele></ele><time>2014-7-4T2:24:45Z</time></trkpt>
<trkpt lat="46.26851186" lon="7.30349472"><ele></ele><time>2014-7-4T2:24:48Z</time></trkpt>
<trkpt lat="46.26850474" lon="7.30351743"><ele></ele><time>2014-7-4T2:24:51Z</time></trkpt>
<trkpt lat="46.26850013" lon="7.30362237"><ele></ele><time>2014-7-4T2:24:54Z</time></trkpt>
<trkpt lat="46.26839644" lon="7.30382882"><ele></ele><time>2014-7-4T2:24:57Z</time></trkpt>
<trkpt lat="46.26829167" lon="7.30398682"><ele></ele><time>2014-7-4T2:25:0Z</time></trkpt>
<trkpt lat="46.26823694" lon="7.30412076"><ele></ele><time>2014-7-4T2:25:3Z</time></trkpt>
<trkpt lat="46.26825496" lon="7.30417776"><ele></ele><time>2014-7-4T2:25:6Z</time></trkpt>
<trkpt lat="46.26823744" lon="7.30437205"><ele></ele><time>2014-7-4T2:25:9Z</time></trkpt>
<trkpt lat="46.26822612" lon="7.30447012"><ele></ele><time>2014-7-4T2:25:12Z</time></trkpt>
<trkpt lat="46.26813912" lon="7.30468998"><ele></ele><time>2014-7-4T2:25:15Z</time></trkpt>
<trkpt lat="46.26809042" lon="7.30498628"><ele></ele><time>2014-7-4T2:25:18Z</time></trkpt>
<trkpt lat="46.26804717" lon="7.30501888"><ele></ele><time>2014-7-4T2:25:21Z</time></trkpt>
<trkpt lat="46.26786486" lon="7.30500899"><ele></ele><time>2014-7-4T2:25:24Z</time></trkpt>
<trkpt lat="46.26773276" lon="7.30491855"><ele></ele><time>2014-7-4T2:25:27Z</time></trkpt>
<trkpt lat="46.26770427" lon="7.30490028"><ele></ele><time>2014-7-4T2:25:30Z</time></trkpt>
<trkpt lat="46.26751995" lon="7.30474882"><ele></ele><time>2014-7-4T2:25:33Z</time></trkpt>
<trkpt lat="46.26744837" lon="7.30463558"><ele></ele><time>2014-7-4T2:25:36Z</time></trkpt>
<trkpt lat="46.26734418" lon="7.30448194"><ele></ele><time>2014-7-4T2:25:39Z</time></trkpt>
<trkpt lat="46.26725047" lon="7.30440835"><ele></ele><time>2014-7-4T2:25:42Z</time></trkpt>
<trkpt lat="46.26719959" lon="7.30416083"><ele></ele><time>2014-7-4T2:25:45Z</time></trkpt>
<trkpt lat="46.26717604" lon="7.30412998"><ele></ele><time>2014-7-4T2:25:48Z</time></trkpt>
<trkpt lat="46.26714377" lon="7.30408346"><ele></ele><time>2014-7-4T2:25:51Z</time></trkpt>
<trkpt lat="46.26707814" lon="7.30399302"><ele></ele><time>2014-7-4T2:25:54Z</time></trkpt>
<trkpt lat="46.26691285" lon="7.30382773"><ele></ele><time>2014-7-4T2:25:57Z</time></trkpt>
<trkpt lat="46.26688745" lon="7.30380544"><ele></ele><time>2014-7-4T2:26:0Z</time></trkpt>
<trkpt lat="46.26679466" lon="7.30375020"><ele></ele><time>2014-7-4T2:26:3Z</time></trkpt>
<trkpt lat="46.26659844" lon="7.30365817"><ele></ele><time>2014-7-4T2:26:6Z</time></trkpt>
<trkpt lat="46.26640549" lon="7.30349497"><ele></ele><time>2014-7-4T2:26:9Z</time></trkpt>
<trkpt lat="46.26629158" lon="7.30331006"><ele></ele><time>2014-7-4T2:26:12Z</time></trkpt>
<trkpt lat="46.26612377" lon="7.30314025"><ele></ele><time>2014-7-4T2:26:15Z</time></trkpt>
<trkpt lat="46.26608488" lon="7.30297429"><ele></ele><time>2014-7-4T2:26:18Z</time></trkpt>
<trkpt lat="46.26607432" lon="7.30296507"><ele></ele><time>2014-7-4T2:26:21Z</time></trkpt>
<trkpt lat="46.26598153" lon="7.30288644"><ele></ele><time>2014-7-4T2:26:24Z</time></trkpt>
<trkpt lat="46.26593208" lon="7.30289692"><ele></ele><time>2014-7-4T2:26:27Z</time></trkpt>
<trkpt lat="46.26584298" lon="7.30289885"><ele></ele><time>2014-7-4T2:26:30Z</time></trkpt>
<trkpt lat="46.26573376" lon="7.30293749"><ele></ele><time>2014-7-4T2:26:33Z</time></trkpt>
<trkpt lat="46.26560745" lon="7.30297739"><ele></ele><time>2014-7-4T2:26:36Z</time></trkpt>
<trkpt lat="46.26542623" lon="7.30303732"><ele></ele><time>2014-7-4T2:26:39Z</time></trkpt>
<trkpt lat="46.26531685" lon="7.30307227"><ele></ele><time>2014-7-4T2:26:42Z</time></trkpt>
<trkpt lat="46.26520646" lon="7.30319465"><ele></ele><time>2014-7-4T2:26:45Z</time></trkpt>
<trkpt lat="46.26504008" lon="7.30324812"><ele></ele><time>2014-7-4T2:26:48Z</time></trkpt>
<trkpt lat="46.26502533" lon="7.30325064"><ele></ele><time>2014-7-4T2:26:51Z</time></trkpt>
<trkpt lat="46.26490672" lon="7.30321443"><ele></ele><time>2014-7-4T2:26:54Z</time></trkpt>
<trkpt lat="46.26480245" lon="7.30311627"><ele></ele><time>2014-7-4T2:26:57Z</time></trkpt>
<trkpt lat="46.26475266" lon="7.30308476"><ele></ele><time>2014-7-4T2:27:0Z</time></trkpt>
<trkpt lat="46.26467949" lon="7.30290782"><ele></ele><time>2014-7-4T2:27:3Z</time></trkpt>
<trkpt lat="46.26454647" lon="7.30278075"><ele></ele><time>2014-7-4T2:27:6Z</time></trkpt>
<trkpt lat="46.26446994" lon="7.30261487"><ele></ele><time>2014-7-4T2:27:9Z</time></trkpt>
<trkpt lat="46.26452300" lon="7.30253415"><ele></ele><time>2014-7-4T2:27:12Z</time></trkpt>
<trkpt lat="46.26455108" lon="7.30243256"><ele></ele><time>2014-7-4T2:27:15Z</time></trkpt>
<trkpt lat="46.26455653" lon="7.30241362"><ele></ele><time>2014-7-4T2:27:18Z</time></trkpt>
<trkpt lat="46.26455954" lon="7.30233056"><ele></ele><time>2014-7-4T2:27:21Z</time></trkpt>
<trkpt lat="46.26456650" lon="7.30227532"><ele></ele><time>2014-7-4T2:27:24Z</time></trkpt>
<trkpt lat="46.26464722" lon="7.30215395"><ele></ele><time>2014-7-4T2:27:27Z</time></trkpt>
<trkpt lat="46.26473456" lon="7.30208748"><ele></ele><time>2014-7-4T2:27:30Z</time></trkpt>
<trkpt lat="46.26483589" lon="7.30194658"><ele></ele><time>2014-7-4T2:27:33Z</time></trkpt>
<trkpt lat="46.26491686" lon="7.30186620"><ele></ele><time>2014-7-4T2:27:36Z</time></trkpt>
<trkpt lat="46.26501619" lon="7.30179043"><ele></ele><time>2014-7-4T2:27:39Z</time></trkpt>
<trkpt lat="46.26507905" lon="7.30173469"><ele></ele><time>2014-7-4T2:27:42Z</time></trkpt>
<trkpt lat="46.26508727" lon="7.30173837"><ele></ele><time>2014-7-4T2:27:45Z</time></trkpt>
<trkpt lat="46.26509347" lon="7.30164098"><ele></ele><time>2014-7-4T2:27:48Z</time></trkpt>
<trkpt lat="46.26508266" lon="7.30159295"><ele></ele><time>2014-7-4T2:27:51Z</time></trkpt>
<trkpt lat="46.26509079" lon="7.30149278"><ele></ele><time>2014-7-4T2:27:54Z</time></trkpt>
<trkpt lat="46.26511166" lon="7.30141324"><ele></ele><time>2014-7-4T2:27:57Z</time></trkpt>
<trkpt lat="46.26516128" lon="7.30168465"><ele></ele><time>2014-7-4T2:28:0Z</time></trkpt>
<trkpt lat="46.26530855" lon="7.30204943"><ele></ele><time>2014-7-4T2:28:3Z</time></trkpt>
<trkpt lat="46.26543654" lon="7.30234665"><ele></ele><time>2014-7-4T2:28:6Z</time></trkpt>
<trkpt lat="46.26548608" lon="7.30241228"><ele></ele><time>2014-7-4T2:28:9Z</time></trkpt>
<trkpt lat="46.26550075" lon="7.30241882"><ele></ele><time>2014-7-4T2:28:12Z</time></trkpt>
<trkpt lat="46.26550678" lon="7.30241194"><ele></ele><time>2014-7-4T2:28:15Z</time></trkpt>
<trkpt lat="46.26549790" lon="7.30240054"><ele></ele><time>2014-7-4T2:28:18Z</time></trkpt>
<trkpt lat="46.26551265" lon="7.30235319"><ele></ele><time>2014-7-4T2:28:21Z</time></trkpt>
<trkpt lat="46.26560326" lon="7.30232008"><ele></ele><time>2014-7-4T2:28:24Z</time></trkpt>
<trkpt lat="46.26573552" lon="7.30220810"><ele></ele><time>2014-7-4T2:28:27Z</time></trkpt>
<trkpt lat="46.26582018" lon="7.30210559"><ele></ele><time>2014-7-4T2:28:30Z</time></trkpt>
<trkpt lat="46.26590568" lon="7.30203576"><ele></ele><time>2014-7-4T2:28:33Z</time></trkpt>
<trkpt lat="46.26595982" lon="7.30198178"><ele></ele><time>2014-7-4T2:28:36Z</time></trkpt>
<trkpt lat="46.26597525" lon="7.30197500"><ele></ele><time>2014-7-4T2:28:39Z</time></trkpt>
<trkpt lat="46.26604725" lon="7.30195052"><ele></ele><time>2014-7-4T2:28:42Z</time></trkpt>
<trkpt lat="46.26615009" lon="7.30190165"><ele></ele><time>2014-7-4T2:28:45Z</time></trkpt>
<trkpt lat="46.26620793" lon="7.30188246"><ele></ele><time>2014-7-4T2:28:48Z</time></trkpt>
<trkpt lat="46.26626040" lon="7.30183150"><ele></ele><time>2014-7-4T2:28:51Z</time></trkpt>
<trkpt lat="46.26630105" lon="7.30182538"><ele></ele><time>2014-7-4T2:28:54Z</time></trkpt>
<trkpt lat="46.26629736" lon="7.30178230"><ele></ele><time>2014-7-4T2:28:57Z</time></trkpt>
<trkpt lat="46.26629644" lon="7.30167878"><ele></ele><time>2014-7-4T2:29:0Z</time></trkpt>
<trkpt lat="46.26631396" lon="7.30166713"><ele></ele><time>2014-7-4T2:29:3Z</time></trkpt>
<trkpt lat="46.26640080" lon="7.30166679"><ele></ele><time>2014-7-4T2:29:6Z</time></trkpt>
<trkpt lat="46.26646282" lon="7.30160317"><ele></ele><time>2014-7-4T2:29:9Z</time></trkpt>
<trkpt lat="46.26657975" lon="7.30155850"><ele></ele><time>2014-7-4T2:29:12Z</time></trkpt>
<trkpt lat="46.26659400" lon="7.30155850"><ele></ele><time>2014-7-4T2:29:15Z</time></trkpt>
<trkpt lat="46.26664890" lon="7.30155649"><ele></ele><time>2014-7-4T2:29:18Z</time></trkpt>
<trkpt lat="46.26674353" lon="7.30149790"><ele></ele><time>2014-7-4T2:29:21Z</time></trkpt>
<trkpt lat="46.26682676" lon="7.30151818"><ele></ele><time>2014-7-4T2:29:24Z</time></trkpt>
<trkpt lat="46.26692223" lon="7.30150854"><ele></ele><time>2014-7-4T2:29:27Z</time></trkpt>
<trkpt lat="46.26700664" lon="7.30149589"><ele></ele><time>2014-7-4T2:29:30Z</time></trkpt>
<trkpt lat="46.26706288" lon="7.30151357"><ele></ele><time>2014-7-4T2:29:33Z</time></trkpt>
<trkpt lat="46.26718869" lon="7.30153394"><ele></ele><time>2014-7-4T2:29:36Z</time></trkpt>
<trkpt lat="46.26726824" lon="7.30157509"><ele></ele><time>2014-7-4T2:29:39Z</time></trkpt>
<trkpt lat="46.26728157" lon="7.30156939"><ele></ele><time>2014-7-4T2:29:42Z</time></trkpt>
<trkpt lat="46.26737729" lon="7.30160653"><ele></ele><time>2014-7-4T2:29:45Z</time></trkpt>
<trkpt lat="46.26743219" lon="7.30164634"><ele></ele><time>2014-7-4T2:29:48Z</time></trkpt>
<trkpt lat="46.26749899" lon="7.30172454"><ele></ele><time>2014-7-4T2:29:51Z</time></trkpt>
<trkpt lat="46.26757988" lon="7.30181188"><ele></ele><time>2014-7-4T2:29:54Z</time></trkpt>
<trkpt lat="46.26766965" lon="7.30181783"><ele></ele><time>2014-7-4T2:29:57Z</time></trkpt>
<trkpt lat="46.26777928" lon="7.30181406"><ele></ele><time>2014-7-4T2:30:0Z</time></trkpt>
<trkpt lat="46.26781574" lon="7.30183518"><ele></ele><time>2014-7-4T2:30:3Z</time></trkpt>
<trkpt lat="46.26786335" lon="7.30187709"><ele></ele><time>2014-7-4T2:30:6Z</time></trkpt>
<trkpt lat="46.26791666" lon="7.30201238"><ele></ele><time>2014-7-4T2:30:9Z</time></trkpt>
<trkpt lat="46.26798280" lon="7.30206493"><ele></ele><time>2014-7-4T2:30:12Z</time></trkpt>
<trkpt lat="46.26808514" lon="7.30205915"><ele></ele><time>2014-7-4T2:30:15Z</time></trkpt>
<trkpt lat="46.26809604" lon="7.30204113"><ele></ele><time>2014-7-4T2:30:18Z</time></trkpt>
<trkpt lat="46.26812269" lon="7.30202252"><ele></ele><time>2014-7-4T2:30:21Z</time></trkpt>
<trkpt lat="46.26819033" lon="7.30193652"><ele></ele><time>2014-7-4T2:30:24Z</time></trkpt>
<trkpt lat="46.26823476" lon="7.30184600"><ele></ele><time>2014-7-4T2:30:27Z</time></trkpt>
<trkpt lat="46.26826979" lon="7.30176947"><ele></ele><time>2014-7-4T2:30:30Z</time></trkpt>
<trkpt lat="46.26830407" lon="7.30170694"><ele></ele><time>2014-7-4T2:30:33Z</time></trkpt>
<trkpt lat="46.26834649" lon="7.30161340"><ele></ele><time>2014-7-4T2:30:36Z</time></trkpt>
<trkpt lat="46.26839728" lon="7.30153142"><ele></ele><time>2014-7-4T2:30:39Z</time></trkpt>
<trkpt lat="46.26847666" lon="7.30144903"><ele></ele><time>2014-7-4T2:30:42Z</time></trkpt>
<trkpt lat="46.26853525" lon="7.30139195"><ele></ele><time>2014-7-4T2:30:45Z</time></trkpt>
<trkpt lat="46.26860968" lon="7.30128382"><ele></ele><time>2014-7-4T2:30:48Z</time></trkpt>
<trkpt lat="46.26866567" lon="7.30121509"><ele></ele><time>2014-7-4T2:30:51Z</time></trkpt>
<trkpt lat="46.26875368" lon="7.30113194"><ele></ele><time>2014-7-4T2:30:54Z</time></trkpt>
<trkpt lat="46.26883917" lon="7.30108274"><ele></ele><time>2014-7-4T2:30:57Z</time></trkpt>
<trkpt lat="46.26888142" lon="7.30106506"><ele></ele><time>2014-7-4T2:31:0Z</time></trkpt>
<trkpt lat="46.26899659" lon="7.30098534"><ele></ele><time>2014-7-4T2:31:3Z</time></trkpt>
<trkpt lat="46.26909113" lon="7.30097042"><ele></ele><time>2014-7-4T2:31:6Z</time></trkpt>
<trkpt lat="46.26911997" lon="7.30096472"><ele></ele><time>2014-7-4T2:31:9Z</time></trkpt>
<trkpt lat="46.26920974" lon="7.30090697"><ele></ele><time>2014-7-4T2:31:12Z</time></trkpt>
<trkpt lat="46.26929909" lon="7.30083162"><ele></ele><time>2014-7-4T2:31:15Z</time></trkpt>
<trkpt lat="46.26940562" lon="7.30077303"><ele></ele><time>2014-7-4T2:31:18Z</time></trkpt>
<trkpt lat="46.26957485" lon="7.30067546"><ele></ele><time>2014-7-4T2:31:21Z</time></trkpt>
<trkpt lat="46.26967938" lon="7.30056658"><ele></ele><time>2014-7-4T2:31:24Z</time></trkpt>
<trkpt lat="46.26968290" lon="7.30054320"><ele></ele><time>2014-7-4T2:31:27Z</time></trkpt>
<trkpt lat="46.26967778" lon="7.30055669"><ele></ele><time>2014-7-4T2:31:30Z</time></trkpt>
<trkpt lat="46.26967778" lon="7.30055669"><ele></ele><time>2014-7-4T2:31:33Z</time></trkpt>
<trkpt lat="46.26967778" lon="7.30055669"><ele></ele><time>2014-7-4T2:31:36Z</time></trkpt>
<trkpt lat="46.26967778" lon="7.30055669"><ele></ele><time>2014-7-4T2:31:39Z</time></trkpt>
<trkpt lat="46.26967778" lon="7.30055669"><ele></ele><time>2014-7-4T2:31:42Z</time></trkpt>
<trkpt lat="46.26967778" lon="7.30055669"><ele></ele><time>2014-7-4T2:31:45Z</time></trkpt>
<trkpt lat="46.26967778" lon="7.30055669"><ele></ele><time>2014-7-4T2:31:48Z</time></trkpt>
<trkpt lat="46.26967778" lon="7.30055669"><ele></ele><time>2014-7-4T2:31:51Z</time></trkpt>
<trkpt lat="46.26967778" lon="7.30055669"><ele></ele><time>2014-7-4T2:31:54Z</time></trkpt>
<trkpt lat="46.26967778" lon="7.30055669"><ele></ele><time>2014-7-4T2:31:57Z</time></trkpt>
<trkpt lat="46.26967778" lon="7.30055669"><ele></ele><time>2014-7-4T2:32:0Z</time></trkpt>
<trkpt lat="46.26967778" lon="7.30055669"><ele></ele><time>2014-7-4T2:32:3Z</time></trkpt>
<trkpt lat="46.26967778" lon="7.30055669"><ele></ele><time>2014-7-4T2:32:6Z</time></trkpt>
<trkpt lat="46.26967778" lon="7.30055669"><ele></ele><time>2014-7-4T2:32:9Z</time></trkpt>
<trkpt lat="46.26967778" lon="7.30055669"><ele></ele><time>2014-7-4T2:32:12Z</time></trkpt>
<trkpt lat="46.26967778" lon="7.30055669"><ele></ele><time>2014-7-4T2:32:15Z</time></trkpt>
<trkpt lat="46.26967778" lon="7.30055669"><ele></ele><time>2014-7-4T2:32:18Z</time></trkpt>
<trkpt lat="46.26967778" lon="7.30055669"><ele></ele><time>2014-7-4T2:32:21Z</time></trkpt>
</trkseg></trk></gpx>